Taftville, Connecticut
Current Conditions -  °F | °C
As of 9:52 PM on Thursday 27 Nov 2014 (Local Time) from KIJD Reporting Station
Overcast Overcast  
Wind Chill: 32°   Ceiling: 7000
Heat Index: 32°   Visibility: 10mi
Dew Point: 29°   Wind: 3mph
Humidity: 88%   Direction: 350°N
Pressure: 30.01"   Gusts: NA
Location:  41.57°N, 72.05°W
Report Text: KIJD 280252Z AUTO 35003KT 10SM OVC070 00/M02 A3001 RMK AO2 SNE37 SLP163 P0000 60000 T00001017 50002
Loading
Personal Weather Stations






























Interactive Weather Map New forecast layout! Learn more

10-Day Weather Forecast

Advertisements
Track Severe Weather on mobile